sensor_id;sensor_type;location;lat;lon;timestamp;pressure;altitude;pressure_sealevel;temperature;humidity
23635;BME280;11994;51.038;16.974;2023-02-10T00:01:41;101807.11;;;0.25;66.83
23635;BME280;11994;51.038;16.974;2023-02-10T00:04:06;101805.65;;;0.19;66.77
23635;BME280;11994;51.038;16.974;2023-02-10T00:06:33;101811.35;;;0.15;66.92
23635;BME280;11994;51.038;16.974;2023-02-10T00:09:11;101812.02;;;0.15;67.08
23635;BME280;11994;51.038;16.974;2023-02-10T00:11:38;101815.08;;;0.22;67.29
23635;BME280;11994;51.038;16.974;2023-02-10T00:14:21;101818.45;;;0.25;67.44
23635;BME280;11994;51.038;16.974;2023-02-10T00:16:53;101818.92;;;0.23;67.28
23635;BME280;11994;51.038;16.974;2023-02-10T00:19:20;101824.75;;;0.27;67.40
23635;BME280;11994;51.038;16.974;2023-02-10T00:21:46;101824.64;;;0.28;67.43
23635;BME280;11994;51.038;16.974;2023-02-10T00:24:11;101827.20;;;0.24;67.14
23635;BME280;11994;51.038;16.974;2023-02-10T00:26:37;101820.98;;;0.19;67.13
23635;BME280;11994;51.038;16.974;2023-02-10T00:29:22;101825.77;;;0.15;67.07
23635;BME280;11994;51.038;16.974;2023-02-10T00:31:47;101828.53;;;0.12;67.04
23635;BME280;11994;51.038;16.974;2023-02-10T00:34:16;101821.70;;;0.09;66.88
23635;BME280;11994;51.038;16.974;2023-02-10T00:36:48;101821.41;;;0.06;66.87
23635;BME280;11994;51.038;16.974;2023-02-10T00:39:14;101822.88;;;0.05;66.81
23635;BME280;11994;51.038;16.974;2023-02-10T00:41:43;101820.77;;;0.03;66.83
23635;BME280;11994;51.038;16.974;2023-02-10T00:44:29;101825.77;;;0.03;66.90
23635;BME280;11994;51.038;16.974;2023-02-10T00:46:54;101822.45;;;0.03;66.85
23635;BME280;11994;51.038;16.974;2023-02-10T00:49:20;101822.62;;;0.02;66.91
23635;BME280;11994;51.038;16.974;2023-02-10T00:51:45;101827.04;;;0.01;66.78
23635;BME280;11994;51.038;16.974;2023-02-10T00:54:13;101828.92;;;0.01;66.98
23635;BME280;11994;51.038;16.974;2023-02-10T00:56:41;101831.73;;;0.02;66.85
23635;BME280;11994;51.038;16.974;2023-02-10T00:59:07;101830.20;;;0.06;66.79
23635;BME280;11994;51.038;16.974;2023-02-10T01:01:32;101833.06;;;0.09;66.66
23635;BME280;11994;51.038;16.974;2023-02-10T01:13:40;101821.79;;;0.22;66.47
23635;BME280;11994;51.038;16.974;2023-02-10T01:16:11;101824.51;;;0.22;66.31
23635;BME280;11994;51.038;16.974;2023-02-10T01:18:40;101823.45;;;0.21;66.33
23635;BME280;11994;51.038;16.974;2023-02-10T01:21:11;101819.96;;;0.20;66.38
23635;BME280;11994;51.038;16.974;2023-02-10T01:23:52;101820.21;;;0.18;66.50
23635;BME280;11994;51.038;16.974;2023-02-10T01:26:17;101824.16;;;0.14;66.60
23635;BME280;11994;51.038;16.974;2023-02-10T01:28:43;101815.38;;;0.10;66.29
23635;BME280;11994;51.038;16.974;2023-02-10T01:31:18;101811.65;;;0.07;66.48
23635;BME280;11994;51.038;16.974;2023-02-10T01:34:04;101806.63;;;0.02;66.35
23635;BME280;11994;51.038;16.974;2023-02-10T01:46:59;101794.23;;;0.02;66.51
23635;BME280;11994;51.038;16.974;2023-02-10T01:49:31;101794.02;;;0.01;66.49
23635;BME280;11994;51.038;16.974;2023-02-10T01:52:18;101795.11;;;0.02;66.58
23635;BME280;11994;51.038;16.974;2023-02-10T01:55:15;101790.98;;;0.06;66.65
23635;BME280;11994;51.038;16.974;2023-02-10T01:57:43;101790.84;;;0.07;66.57
23635;BME280;11994;51.038;16.974;2023-02-10T02:11:02;101795.27;;;0.14;66.48
23635;BME280;11994;51.038;16.974;2023-02-10T02:33:21;101809.65;;;0.08;65.82
23635;BME280;11994;51.038;16.974;2023-02-10T02:36:13;101808.82;;;0.05;65.92
23635;BME280;11994;51.038;16.974;2023-02-10T02:38:46;101813.05;;;0.04;66.00
23635;BME280;11994;51.038;16.974;2023-02-10T02:41:12;101820.40;;;0.03;65.91
23635;BME280;11994;51.038;16.974;2023-02-10T02:43:39;101817.98;;;0.02;65.95
23635;BME280;11994;51.038;16.974;2023-02-10T02:46:26;101820.35;;;0.02;66.00
23635;BME280;11994;51.038;16.974;2023-02-10T02:49:19;101817.69;;;-0.00;66.04
23635;BME280;11994;51.038;16.974;2023-02-10T02:57:54;101815.76;;;-0.12;65.96
23635;BME280;11994;51.038;16.974;2023-02-10T03:00:39;101817.65;;;-0.16;66.18
23635;BME280;11994;51.038;16.974;2023-02-10T03:03:06;101812.44;;;-0.21;66.08
23635;BME280;11994;51.038;16.974;2023-02-10T03:05:36;101811.85;;;-0.26;66.18
23635;BME280;11994;51.038;16.974;2023-02-10T03:08:02;101812.98;;;-0.31;66.16
23635;BME280;11994;51.038;16.974;2023-02-10T03:10:28;101809.67;;;-0.35;66.21
23635;BME280;11994;51.038;16.974;2023-02-10T03:12:53;101809.16;;;-0.39;66.56
23635;BME280;11994;51.038;16.974;2023-02-10T03:15:23;101815.11;;;-0.45;66.50
23635;BME280;11994;51.038;16.974;2023-02-10T03:17:48;101817.11;;;-0.46;66.59
23635;BME280;11994;51.038;16.974;2023-02-10T03:20:14;101817.78;;;-0.46;66.63
23635;BME280;11994;51.038;16.974;2023-02-10T03:22:59;101817.56;;;-0.43;66.85
23635;BME280;11994;51.038;16.974;2023-02-10T03:25:25;101815.63;;;-0.40;66.92
23635;BME280;11994;51.038;16.974;2023-02-10T03:27:50;101814.56;;;-0.41;66.92
23635;BME280;11994;51.038;16.974;2023-02-10T03:30:15;101821.21;;;-0.39;66.88
23635;BME280;11994;51.038;16.974;2023-02-10T03:32:41;101828.39;;;-0.36;66.92
23635;BME280;11994;51.038;16.974;2023-02-10T03:35:06;101832.11;;;-0.37;67.13
23635;BME280;11994;51.038;16.974;2023-02-10T03:37:32;101834.42;;;-0.39;67.00
23635;BME280;11994;51.038;16.974;2023-02-10T03:39:57;101837.04;;;-0.42;66.82
23635;BME280;11994;51.038;16.974;2023-02-10T03:42:23;101840.95;;;-0.47;67.00
23635;BME280;11994;51.038;16.974;2023-02-10T03:44:48;101844.39;;;-0.50;66.95
23635;BME280;11994;51.038;16.974;2023-02-10T03:47:13;101843.02;;;-0.53;66.92
23635;BME280;11994;51.038;16.974;2023-02-10T03:49:39;101843.58;;;-0.56;67.22
23635;BME280;11994;51.038;16.974;2023-02-10T03:52:04;101845.30;;;-0.60;67.11
23635;BME280;11994;51.038;16.974;2023-02-10T03:54:29;101844.00;;;-0.62;67.25
23635;BME280;11994;51.038;16.974;2023-02-10T03:56:58;101846.01;;;-0.66;67.02
23635;BME280;11994;51.038;16.974;2023-02-10T03:59:23;101843.23;;;-0.70;67.24
23635;BME280;11994;51.038;16.974;2023-02-10T04:01:48;101848.73;;;-0.74;67.15
23635;BME280;11994;51.038;16.974;2023-02-10T04:04:14;101848.73;;;-0.77;67.27
23635;BME280;11994;51.038;16.974;2023-02-10T04:06:39;101849.84;;;-0.80;67.37
23635;BME280;11994;51.038;16.974;2023-02-10T04:09:05;101851.90;;;-0.83;67.53
23635;BME280;11994;51.038;16.974;2023-02-10T04:11:32;101848.51;;;-0.85;67.41
23635;BME280;11994;51.038;16.974;2023-02-10T04:24:05;101850.06;;;-0.82;68.00
23635;BME280;11994;51.038;16.974;2023-02-10T04:26:50;101855.56;;;-0.78;68.14
23635;BME280;11994;51.038;16.974;2023-02-10T04:29:16;101860.31;;;-0.72;67.99
23635;BME280;11994;51.038;16.974;2023-02-10T04:31:41;101863.89;;;-0.73;68.02
23635;BME280;11994;51.038;16.974;2023-02-10T04:34:06;101864.09;;;-0.72;67.92
23635;BME280;11994;51.038;16.974;2023-02-10T04:36:32;101861.35;;;-0.72;67.76
23635;BME280;11994;51.038;16.974;2023-02-10T04:38:57;101865.25;;;-0.73;67.73
23635;BME280;11994;51.038;16.974;2023-02-10T04:41:23;101863.39;;;-0.76;68.00
23635;BME280;11994;51.038;16.974;2023-02-10T04:43:48;101861.81;;;-0.80;67.70
23635;BME280;11994;51.038;16.974;2023-02-10T04:46:13;101865.63;;;-0.83;67.78
23635;BME280;11994;51.038;16.974;2023-02-10T04:48:39;101862.73;;;-0.86;67.76
23635;BME280;11994;51.038;16.974;2023-02-10T04:51:10;101865.81;;;-0.89;67.81
23635;BME280;11994;51.038;16.974;2023-02-10T04:53:39;101863.39;;;-0.90;67.85
23635;BME280;11994;51.038;16.974;2023-02-10T04:56:06;101862.12;;;-0.91;67.93
23635;BME280;11994;51.038;16.974;2023-02-10T04:58:32;101862.05;;;-0.93;68.00
23635;BME280;11994;51.038;16.974;2023-02-10T05:00:59;101862.55;;;-0.96;67.78
23635;BME280;11994;51.038;16.974;2023-02-10T05:03:25;101871.33;;;-1.00;67.77
23635;BME280;11994;51.038;16.974;2023-02-10T05:05:50;101869.64;;;-1.02;67.90
23635;BME280;11994;51.038;16.974;2023-02-10T05:08:28;101873.85;;;-1.04;67.90
23635;BME280;11994;51.038;16.974;2023-02-10T05:10:53;101872.95;;;-1.05;68.00
23635;BME280;11994;51.038;16.974;2023-02-10T05:13:27;101868.23;;;-1.06;67.90
23635;BME280;11994;51.038;16.974;2023-02-10T05:15:52;101866.91;;;-1.09;68.12
23635;BME280;11994;51.038;16.974;2023-02-10T05:18:18;101867.03;;;-1.06;68.13
23635;BME280;11994;51.038;16.974;2023-02-10T05:20:43;101868.81;;;-1.02;68.05
23635;BME280;11994;51.038;16.974;2023-02-10T05:23:08;101870.30;;;-0.96;68.19
23635;BME280;11994;51.038;16.974;2023-02-10T05:25:34;101876.02;;;-0.91;68.24
23635;BME280;11994;51.038;16.974;2023-02-10T05:27:59;101874.09;;;-0.89;68.11
23635;BME280;11994;51.038;16.974;2023-02-10T05:30:24;101875.73;;;-0.87;68.30
23635;BME280;11994;51.038;16.974;2023-02-10T05:42:24;101879.86;;;-0.69;68.46
23635;BME280;11994;51.038;16.974;2023-02-10T05:44:50;101876.89;;;-0.67;68.45
23635;BME280;11994;51.038;16.974;2023-02-10T05:47:35;101881.71;;;-0.63;68.59
23635;BME280;11994;51.038;16.974;2023-02-10T05:50:00;101879.79;;;-0.60;68.53
23635;BME280;11994;51.038;16.974;2023-02-10T05:52:26;101887.09;;;-0.59;68.73
23635;BME280;11994;51.038;16.974;2023-02-10T05:54:51;101893.80;;;-0.59;68.46
23635;BME280;11994;51.038;16.974;2023-02-10T05:57:16;101894.02;;;-0.57;68.32
23635;BME280;11994;51.038;16.974;2023-02-10T05:59:42;101896.17;;;-0.55;68.51
23635;BME280;11994;51.038;16.974;2023-02-10T06:02:07;101898.34;;;-0.54;68.36
23635;BME280;11994;51.038;16.974;2023-02-10T06:04:33;101895.98;;;-0.52;68.47
23635;BME280;11994;51.038;16.974;2023-02-10T06:06:58;101896.42;;;-0.50;68.40
23635;BME280;11994;51.038;16.974;2023-02-10T06:09:25;101905.98;;;-0.48;68.41
23635;BME280;11994;51.038;16.974;2023-02-10T06:11:56;101904.16;;;-0.47;68.52
23635;BME280;11994;51.038;16.974;2023-02-10T06:14:21;101905.63;;;-0.45;68.41
23635;BME280;11994;51.038;16.974;2023-02-10T06:16:46;101909.85;;;-0.43;68.45
23635;BME280;11994;51.038;16.974;2023-02-10T06:19:12;101910.94;;;-0.38;68.38
23635;BME280;11994;51.038;16.974;2023-02-10T06:21:37;101914.34;;;-0.32;68.47
23635;BME280;11994;51.038;16.974;2023-02-10T06:24:03;101914.08;;;-0.23;68.59
23635;BME280;11994;51.038;16.974;2023-02-10T06:26:28;101919.33;;;-0.14;68.69
23635;BME280;11994;51.038;16.974;2023-02-10T06:28:54;101925.49;;;-0.07;68.52
23635;BME280;11994;51.038;16.974;2023-02-10T06:31:24;101931.77;;;0.02;68.34
23635;BME280;11994;51.038;16.974;2023-02-10T06:33:53;101939.95;;;0.11;68.33
23635;BME280;11994;51.038;16.974;2023-02-10T06:36:18;101943.86;;;0.17;68.16
23635;BME280;11994;51.038;16.974;2023-02-10T06:38:44;101941.46;;;0.25;67.86
23635;BME280;11994;51.038;16.974;2023-02-10T06:41:09;101939.90;;;0.32;67.63
23635;BME280;11994;51.038;16.974;2023-02-10T06:43:34;101937.76;;;0.38;67.44
23635;BME280;11994;51.038;16.974;2023-02-10T06:46:00;101937.95;;;0.42;67.16
23635;BME280;11994;51.038;16.974;2023-02-10T06:48:33;101939.90;;;0.43;67.07
23635;BME280;11994;51.038;16.974;2023-02-10T06:50:59;101949.27;;;0.45;66.72
23635;BME280;11994;51.038;16.974;2023-02-10T06:53:24;101948.42;;;0.45;66.84
23635;BME280;11994;51.038;16.974;2023-02-10T06:55:50;101943.92;;;0.45;66.77
23635;BME280;11994;51.038;16.974;2023-02-10T07:08:25;101953.44;;;0.57;66.60
23635;BME280;11994;51.038;16.974;2023-02-10T07:10:51;101953.13;;;0.58;66.51
23635;BME280;11994;51.038;16.974;2023-02-10T07:13:16;101952.02;;;0.60;66.60
23635;BME280;11994;51.038;16.974;2023-02-10T07:15:42;101956.23;;;0.62;66.60
23635;BME280;11994;51.038;16.974;2023-02-10T07:18:11;101959.95;;;0.64;66.53
23635;BME280;11994;51.038;16.974;2023-02-10T07:20:37;101963.74;;;0.64;66.55
23635;BME280;11994;51.038;16.974;2023-02-10T07:23:02;101963.26;;;0.65;66.55
23635;BME280;11994;51.038;16.974;2023-02-10T07:25:28;101967.59;;;0.65;66.68
23635;BME280;11994;51.038;16.974;2023-02-10T07:27:53;101971.11;;;0.67;66.89
23635;BME280;11994;51.038;16.974;2023-02-10T07:30:21;101972.91;;;0.69;66.72
23635;BME280;11994;51.038;16.974;2023-02-10T07:32:47;101973.31;;;0.70;66.74
23635;BME280;11994;51.038;16.974;2023-02-10T07:35:12;101974.77;;;0.72;66.79
23635;BME280;11994;51.038;16.974;2023-02-10T07:37:40;101972.69;;;0.75;66.85
23635;BME280;11994;51.038;16.974;2023-02-10T07:40:12;101968.32;;;0.78;66.98
23635;BME280;11994;51.038;16.974;2023-02-10T07:42:37;101976.55;;;0.81;66.78
23635;BME280;11994;51.038;16.974;2023-02-10T07:45:03;101979.38;;;0.83;66.66
23635;BME280;11994;51.038;16.974;2023-02-10T07:47:28;101983.78;;;0.85;66.68
23635;BME280;11994;51.038;16.974;2023-02-10T07:49:54;101985.59;;;0.87;66.50
23635;BME280;11994;51.038;16.974;2023-02-10T07:52:22;101988.95;;;0.89;66.63
23635;BME280;11994;51.038;16.974;2023-02-10T07:54:50;101981.95;;;0.90;66.59
23635;BME280;11994;51.038;16.974;2023-02-10T07:57:20;101975.98;;;0.91;66.43
23635;BME280;11994;51.038;16.974;2023-02-10T07:59:45;101973.84;;;0.93;66.56
23635;BME280;11994;51.038;16.974;2023-02-10T08:02:11;101977.77;;;0.97;66.56
23635;BME280;11994;51.038;16.974;2023-02-10T08:04:36;101978.60;;;1.00;66.74
23635;BME280;11994;51.038;16.974;2023-02-10T08:07:02;101987.52;;;1.03;66.74
23635;BME280;11994;51.038;16.974;2023-02-10T08:09:47;101980.77;;;1.06;66.86
23635;BME280;11994;51.038;16.974;2023-02-10T08:12:12;101981.14;;;1.11;66.88
23635;BME280;11994;51.038;16.974;2023-02-10T08:14:38;101983.87;;;1.14;66.99
23635;BME280;11994;51.038;16.974;2023-02-10T08:17:03;101983.70;;;1.18;67.00
23635;BME280;11994;51.038;16.974;2023-02-10T08:28:48;101970.30;;;1.43;67.23
23635;BME280;11994;51.038;16.974;2023-02-10T08:31:25;101974.11;;;1.48;67.27
23635;BME280;11994;51.038;16.974;2023-02-10T08:33:50;101977.20;;;1.51;67.22
23635;BME280;11994;51.038;16.974;2023-02-10T08:36:18;101968.42;;;1.56;67.45
23635;BME280;11994;51.038;16.974;2023-02-10T08:38:49;101971.73;;;1.61;67.77
23635;BME280;11994;51.038;16.974;2023-02-10T08:41:16;101967.66;;;1.66;67.52
23635;BME280;11994;51.038;16.974;2023-02-10T08:43:44;101969.04;;;1.71;67.78
23635;BME280;11994;51.038;16.974;2023-02-10T08:46:31;101974.33;;;1.73;67.97
23635;BME280;11994;51.038;16.974;2023-02-10T08:48:56;101975.23;;;1.79;67.91
23635;BME280;11994;51.038;16.974;2023-02-10T08:51:25;101978.16;;;1.83;67.99
23635;BME280;11994;51.038;16.974;2023-02-10T08:53:50;101982.50;;;1.84;68.15
23635;BME280;11994;51.038;16.974;2023-02-10T08:56:17;101987.77;;;1.86;68.17
23635;BME280;11994;51.038;16.974;2023-02-10T08:59:07;101987.87;;;1.88;68.36
23635;BME280;11994;51.038;16.974;2023-02-10T09:01:33;101987.80;;;1.91;68.37
23635;BME280;11994;51.038;16.974;2023-02-10T09:03:58;101987.81;;;1.95;68.68
23635;BME280;11994;51.038;16.974;2023-02-10T09:06:28;101988.58;;;1.97;68.83
23635;BME280;11994;51.038;16.974;2023-02-10T09:08:56;101988.96;;;1.98;69.07
23635;BME280;11994;51.038;16.974;2023-02-10T09:11:23;101991.33;;;2.01;69.57
23635;BME280;11994;51.038;16.974;2023-02-10T09:23:59;101992.13;;;2.30;70.94
23635;BME280;11994;51.038;16.974;2023-02-10T09:26:24;101991.42;;;2.34;71.09
23635;BME280;11994;51.038;16.974;2023-02-10T09:28:50;101995.59;;;2.39;71.08
23635;BME280;11994;51.038;16.974;2023-02-10T09:31:19;101997.25;;;2.42;71.11
23635;BME280;11994;51.038;16.974;2023-02-10T09:33:45;102000.80;;;2.44;71.33
23635;BME280;11994;51.038;16.974;2023-02-10T09:36:21;101998.53;;;2.48;71.85
23635;BME280;11994;51.038;16.974;2023-02-10T09:38:46;102006.65;;;2.53;72.15
23635;BME280;11994;51.038;16.974;2023-02-10T09:44:26;102002.79;;;2.60;71.92
23635;BME280;11994;51.038;16.974;2023-02-10T09:47:12;102011.05;;;2.64;71.92
23635;BME280;11994;51.038;16.974;2023-02-10T09:53:00;102004.43;;;2.72;72.50
23635;BME280;11994;51.038;16.974;2023-02-10T09:55:39;102001.85;;;2.72;72.45
23635;BME280;11994;51.038;16.974;2023-02-10T09:58:14;102004.61;;;2.77;72.61
23635;BME280;11994;51.038;16.974;2023-02-10T10:01:03;102008.40;;;2.85;72.89
23635;BME280;11994;51.038;16.974;2023-02-10T10:06:51;102009.84;;;3.06;73.10
23635;BME280;11994;51.038;16.974;2023-02-10T10:11:57;102013.52;;;3.22;72.70
23635;BME280;11994;51.038;16.974;2023-02-10T10:14:43;102013.06;;;3.23;72.69
23635;BME280;11994;51.038;16.974;2023-02-10T10:24:51;102009.13;;;3.34;72.98
23635;BME280;11994;51.038;16.974;2023-02-10T10:30:17;102006.75;;;3.40;73.12
23635;BME280;11994;51.038;16.974;2023-02-10T10:33:23;102011.19;;;3.48;72.89
23635;BME280;11994;51.038;16.974;2023-02-10T10:36:18;102000.02;;;3.50;72.86
23635;BME280;11994;51.038;16.974;2023-02-10T10:48:36;101999.30;;;3.60;72.42
23635;BME280;11994;51.038;16.974;2023-02-10T10:51:08;102000.14;;;3.64;72.31
23635;BME280;11994;51.038;16.974;2023-02-10T10:53:43;101995.04;;;3.72;72.65
23635;BME280;11994;51.038;16.974;2023-02-10T10:56:51;101995.55;;;3.82;72.67
23635;BME280;11994;51.038;16.974;2023-02-10T11:00:20;101992.52;;;3.90;72.39
23635;BME280;11994;51.038;16.974;2023-02-10T11:02:24;101997.55;;;3.90;72.27
23635;BME280;11994;51.038;16.974;2023-02-10T11:05:14;101992.06;;;3.92;72.36
23635;BME280;11994;51.038;16.974;2023-02-10T11:07:48;101994.21;;;3.94;72.27
23635;BME280;11994;51.038;16.974;2023-02-10T11:10:25;101993.70;;;3.94;72.24
23635;BME280;11994;51.038;16.974;2023-02-10T11:12:53;101984.63;;;3.97;72.33
23635;BME280;11994;51.038;16.974;2023-02-10T11:16:05;101978.48;;;4.00;72.08
23635;BME280;11994;51.038;16.974;2023-02-10T11:18:32;101992.56;;;4.02;71.99
23635;BME280;11994;51.038;16.974;2023-02-10T11:21:09;101987.48;;;4.00;71.92
23635;BME280;11994;51.038;16.974;2023-02-10T11:23:51;101975.52;;;4.00;71.99
23635;BME280;11994;51.038;16.974;2023-02-10T11:26:18;101966.33;;;4.04;71.99
23635;BME280;11994;51.038;16.974;2023-02-10T11:28:56;101970.67;;;4.10;72.05
23635;BME280;11994;51.038;16.974;2023-02-10T11:36:56;101965.42;;;4.25;72.01
23635;BME280;11994;51.038;16.974;2023-02-10T11:39:43;101960.38;;;4.30;71.81
23635;BME280;11994;51.038;16.974;2023-02-10T11:42:33;101964.16;;;4.29;71.54
23635;BME280;11994;51.038;16.974;2023-02-10T11:45:23;101965.20;;;4.29;71.41
23635;BME280;11994;51.038;16.974;2023-02-10T11:48:12;101973.91;;;4.31;71.33
23635;BME280;11994;51.038;16.974;2023-02-10T12:04:18;101964.80;;;4.39;71.23
23635;BME280;11994;51.038;16.974;2023-02-10T12:13:12;101961.92;;;4.52;71.47
23635;BME280;11994;51.038;16.974;2023-02-10T12:18:50;101955.30;;;4.51;71.02
23635;BME280;11994;51.038;16.974;2023-02-10T12:21:47;101959.59;;;4.50;70.96
23635;BME280;11994;51.038;16.974;2023-02-10T12:27:11;101963.57;;;4.50;71.07
23635;BME280;11994;51.038;16.974;2023-02-10T12:30:09;101967.03;;;4.50;71.19
23635;BME280;11994;51.038;16.974;2023-02-10T12:52:31;101970.09;;;4.59;71.26
23635;BME280;11994;51.038;16.974;2023-02-10T12:55:23;101971.29;;;4.59;71.38
23635;BME280;11994;51.038;16.974;2023-02-10T12:58:34;101973.34;;;4.58;71.30
23635;BME280;11994;51.038;16.974;2023-02-10T13:01:11;101968.77;;;4.55;71.47
23635;BME280;11994;51.038;16.974;2023-02-10T13:04:01;101968.94;;;4.55;71.90
23635;BME280;11994;51.038;16.974;2023-02-10T13:06:56;101969.81;;;4.56;71.90
23635;BME280;11994;51.038;16.974;2023-02-10T13:12:31;101968.17;;;4.59;71.90
23635;BME280;11994;51.038;16.974;2023-02-10T13:15:15;101970.15;;;4.61;72.07
23635;BME280;11994;51.038;16.974;2023-02-10T13:18:19;101973.58;;;4.66;72.12
23635;BME280;11994;51.038;16.974;2023-02-10T13:23:31;101968.46;;;4.69;72.13
23635;BME280;11994;51.038;16.974;2023-02-10T13:35:40;101970.10;;;4.72;72.08
23635;BME280;11994;51.038;16.974;2023-02-10T13:38:45;101974.25;;;4.72;72.11
23635;BME280;11994;51.038;16.974;2023-02-10T13:41:35;101974.12;;;4.72;72.08
23635;BME280;11994;51.038;16.974;2023-02-10T13:44:30;101976.44;;;4.69;72.21
23635;BME280;11994;51.038;16.974;2023-02-10T13:47:36;101971.05;;;4.68;72.14
23635;BME280;11994;51.038;16.974;2023-02-10T13:50:50;101975.91;;;4.69;72.41
23635;BME280;11994;51.038;16.974;2023-02-10T14:03:57;101983.27;;;4.71;72.38
23635;BME280;11994;51.038;16.974;2023-02-10T14:06:40;101986.31;;;4.69;72.12
23635;BME280;11994;51.038;16.974;2023-02-10T14:11:56;101984.60;;;4.64;72.46
23635;BME280;11994;51.038;16.974;2023-02-10T14:14:32;101987.29;;;4.66;72.58
23635;BME280;11994;51.038;16.974;2023-02-10T14:17:24;101984.79;;;4.70;72.60
23635;BME280;11994;51.038;16.974;2023-02-10T14:20:17;101994.21;;;4.72;72.57
23635;BME280;11994;51.038;16.974;2023-02-10T14:33:35;101994.55;;;4.78;72.20
23635;BME280;11994;51.038;16.974;2023-02-10T14:36:20;101992.86;;;4.73;72.12
23635;BME280;11994;51.038;16.974;2023-02-10T14:38:58;101988.72;;;4.68;72.14
23635;BME280;11994;51.038;16.974;2023-02-10T14:41:26;101986.67;;;4.63;72.03
23635;BME280;11994;51.038;16.974;2023-02-10T14:44:03;101989.96;;;4.57;71.97
23635;BME280;11994;51.038;16.974;2023-02-10T14:46:30;101983.17;;;4.56;72.07
23635;BME280;11994;51.038;16.974;2023-02-10T14:49:10;101976.73;;;4.55;72.08
23635;BME280;11994;51.038;16.974;2023-02-10T14:51:43;101983.14;;;4.55;72.11
23635;BME280;11994;51.038;16.974;2023-02-10T14:54:15;101987.27;;;4.55;72.09
23635;BME280;11994;51.038;16.974;2023-02-10T14:57:10;101989.83;;;4.53;72.10
23635;BME280;11994;51.038;16.974;2023-02-10T14:59:37;101991.48;;;4.50;72.35
23635;BME280;11994;51.038;16.974;2023-02-10T15:02:20;101992.30;;;4.49;72.04
23635;BME280;11994;51.038;16.974;2023-02-10T15:04:50;101994.19;;;4.48;72.15
23635;BME280;11994;51.038;16.974;2023-02-10T15:07:29;101993.43;;;4.46;72.18
23635;BME280;11994;51.038;16.974;2023-02-10T15:10:29;101997.19;;;4.44;72.17
23635;BME280;11994;51.038;16.974;2023-02-10T15:13:11;101995.01;;;4.41;72.28
23635;BME280;11994;51.038;16.974;2023-02-10T15:15:42;101993.41;;;4.40;72.40
23635;BME280;11994;51.038;16.974;2023-02-10T15:18:25;101991.39;;;4.42;72.33
23635;BME280;11994;51.038;16.974;2023-02-10T15:31:24;102001.63;;;4.42;72.59
23635;BME280;11994;51.038;16.974;2023-02-10T15:33:52;102000.50;;;4.39;72.62
23635;BME280;11994;51.038;16.974;2023-02-10T15:41:37;101992.34;;;4.33;72.35
23635;BME280;11994;51.038;16.974;2023-02-10T15:50:14;101995.89;;;4.25;72.44
23635;BME280;11994;51.038;16.974;2023-02-10T15:52:59;101997.78;;;4.25;72.36
23635;BME280;11994;51.038;16.974;2023-02-10T15:55:48;101989.87;;;4.26;72.48
23635;BME280;11994;51.038;16.974;2023-02-10T15:58:15;101992.35;;;4.22;72.32
23635;BME280;11994;51.038;16.974;2023-02-10T16:00:47;101992.77;;;4.19;72.36
23635;BME280;11994;51.038;16.974;2023-02-10T16:03:12;101995.55;;;4.14;72.20
23635;BME280;11994;51.038;16.974;2023-02-10T16:05:40;101997.08;;;4.08;72.09
23635;BME280;11994;51.038;16.974;2023-02-10T16:08:19;101997.06;;;4.02;72.08
23635;BME280;11994;51.038;16.974;2023-02-10T16:10:54;101998.06;;;3.95;72.00
23635;BME280;11994;51.038;16.974;2023-02-10T16:13:19;102008.73;;;3.88;71.98
23635;BME280;11994;51.038;16.974;2023-02-10T16:15:52;102014.23;;;3.82;72.02
23635;BME280;11994;51.038;16.974;2023-02-10T16:18:21;102016.82;;;3.81;72.24
23635;BME280;11994;51.038;16.974;2023-02-10T16:20:48;102020.09;;;3.81;72.34
23635;BME280;11994;51.038;16.974;2023-02-10T16:23:15;102020.94;;;3.81;72.38
23635;BME280;11994;51.038;16.974;2023-02-10T16:25:41;102026.64;;;3.80;72.15
23635;BME280;11994;51.038;16.974;2023-02-10T16:28:09;102029.40;;;3.81;72.30
23635;BME280;11994;51.038;16.974;2023-02-10T16:30:34;102029.40;;;3.81;72.41
23635;BME280;11994;51.038;16.974;2023-02-10T16:33:01;102033.01;;;3.79;72.30
23635;BME280;11994;51.038;16.974;2023-02-10T16:35:26;102032.64;;;3.79;72.29
23635;BME280;11994;51.038;16.974;2023-02-10T16:37:52;102030.70;;;3.77;72.30
23635;BME280;11994;51.038;16.974;2023-02-10T16:40:33;102029.98;;;3.76;72.29
23635;BME280;11994;51.038;16.974;2023-02-10T16:42:59;102025.57;;;3.75;72.22
23635;BME280;11994;51.038;16.974;2023-02-10T16:45:27;102026.39;;;3.73;72.32
23635;BME280;11994;51.038;16.974;2023-02-10T16:47:53;102030.02;;;3.73;72.51
23635;BME280;11994;51.038;16.974;2023-02-10T16:50:40;102034.27;;;3.75;72.47
23635;BME280;11994;51.038;16.974;2023-02-10T16:53:07;102030.76;;;3.80;72.46
23635;BME280;11994;51.038;16.974;2023-02-10T16:55:33;102031.16;;;3.81;72.47
23635;BME280;11994;51.038;16.974;2023-02-10T16:57:59;102022.26;;;3.84;72.59
23635;BME280;11994;51.038;16.974;2023-02-10T17:00:25;102020.77;;;3.86;72.37
23635;BME280;11994;51.038;16.974;2023-02-10T17:02:51;102019.73;;;3.86;72.37
23635;BME280;11994;51.038;16.974;2023-02-10T17:05:17;102022.98;;;3.85;72.54
23635;BME280;11994;51.038;16.974;2023-02-10T17:07:43;102024.31;;;3.83;72.48
23635;BME280;11994;51.038;16.974;2023-02-10T17:10:18;102027.24;;;3.83;72.50
23635;BME280;11994;51.038;16.974;2023-02-10T17:12:44;102023.77;;;3.83;72.28
23635;BME280;11994;51.038;16.974;2023-02-10T17:15:10;102021.82;;;3.81;72.56
23635;BME280;11994;51.038;16.974;2023-02-10T17:17:36;102028.73;;;3.81;72.50
23635;BME280;11994;51.038;16.974;2023-02-10T17:20:03;102026.07;;;3.84;72.49
23635;BME280;11994;51.038;16.974;2023-02-10T17:22:28;102027.56;;;3.87;72.52
23635;BME280;11994;51.038;16.974;2023-02-10T17:24:53;102030.92;;;3.89;72.50